createdAt,value
2019-04-06T00:01:17.154Z,97314.09
2019-04-06T00:03:28.066Z,97313.09
2019-04-06T00:05:39.023Z,97317.86
2019-04-06T00:07:49.869Z,97311.95
2019-04-06T00:10:00.844Z,97317.72
2019-04-06T00:12:11.818Z,97311.20
2019-04-06T00:14:22.670Z,97312.03
2019-04-06T00:16:33.728Z,97308.58
2019-04-06T00:18:44.632Z,97306.97
2019-04-06T00:20:55.477Z,97308.73
2019-04-06T00:23:06.312Z,97299.05
2019-04-06T00:25:17.159Z,97298.22
2019-04-06T00:27:28.122Z,97294.27
2019-04-06T00:29:39.004Z,97295.96
2019-04-06T00:31:51.817Z,97295.72
2019-04-06T00:34:04.763Z,97288.84
2019-04-06T00:36:15.615Z,97291.50
2019-04-06T00:38:26.457Z,97291.19
2019-04-06T00:40:37.304Z,97294.82
2019-04-06T00:42:48.289Z,97303.19
2019-04-06T00:44:59.098Z,97293.98
2019-04-06T00:47:10.077Z,97291.03
2019-04-06T00:49:20.908Z,97293.15
2019-04-06T00:51:31.807Z,97289.38
2019-04-06T00:53:42.599Z,97293.83
2019-04-06T00:55:56.049Z,97287.92
2019-04-06T00:58:06.292Z,97292.77
2019-04-06T01:00:17.558Z,97289.80
2019-04-06T01:02:28.435Z,97287.92
2019-04-06T01:04:39.382Z,97289.27
2019-04-06T01:06:50.358Z,97296.83
2019-04-06T01:09:01.354Z,97290.69
2019-04-06T01:11:12.424Z,97289.83
2019-04-06T01:13:23.283Z,97286.52
2019-04-06T01:15:34.133Z,97286.38
2019-04-06T01:17:45.007Z,97285.84
2019-04-06T01:19:55.887Z,97284.41
2019-04-06T01:22:06.954Z,97284.46
2019-04-06T01:24:17.843Z,97286.94
2019-04-06T01:26:28.768Z,97284.00
2019-04-06T01:28:39.577Z,97283.09
2019-04-06T01:30:50.437Z,97279.18
2019-04-06T01:33:01.524Z,97277.81
2019-04-06T01:35:12.349Z,97282.80
2019-04-06T01:37:23.229Z,97279.92
2019-04-06T01:39:34.075Z,97282.58
2019-04-06T01:41:45.028Z,97279.41
2019-04-06T01:43:55.985Z,97279.05
2019-04-06T01:46:06.941Z,97278.81
2019-04-06T01:48:17.806Z,97277.98
2019-04-06T01:50:28.785Z,97284.36
2019-04-06T01:52:39.773Z,97285.67
2019-04-06T01:54:50.729Z,97287.37
2019-04-06T01:57:01.696Z,97284.44
2019-04-06T01:59:12.658Z,97284.09
2019-04-06T02:01:31.219Z,97279.78
2019-04-06T02:03:42.085Z,97276.58
2019-04-06T02:05:53.021Z,97284.36
2019-04-06T02:08:03.888Z,97283.17
2019-04-06T02:10:14.831Z,97283.35
2019-04-06T02:12:26.241Z,97275.45
2019-04-06T02:14:37.078Z,97274.63
2019-04-06T02:16:48.018Z,97273.88
2019-04-06T02:18:58.901Z,97278.78
2019-04-06T02:21:09.749Z,97283.55
2019-04-06T02:23:20.607Z,97280.53
2019-04-06T02:25:31.436Z,97277.05
2019-04-06T02:27:42.332Z,97279.91
2019-04-06T02:30:01.134Z,97272.57
2019-04-06T02:32:19.909Z,97277.34
2019-04-06T02:34:32.803Z,97272.57
2019-04-06T02:37:01.035Z,97268.95
2019-04-06T02:39:30.425Z,97270.31
2019-04-06T02:41:45.413Z,97274.54
2019-04-06T02:43:56.359Z,97267.58
2019-04-06T02:46:07.304Z,97274.45
2019-04-06T02:48:18.233Z,97267.20
2019-04-06T02:50:29.184Z,97262.44
2019-04-06T02:52:40.129Z,97262.30
2019-04-06T02:54:51.085Z,97259.67
2019-04-06T02:57:01.928Z,97258.38
2019-04-06T02:59:12.868Z,97255.27
2019-04-06T03:01:23.829Z,97259.05
2019-04-06T03:03:34.773Z,97256.02
2019-04-06T03:05:45.738Z,97259.79
2019-04-06T03:07:56.738Z,97253.69
2019-04-06T03:10:08.192Z,97256.45
2019-04-06T03:12:19.225Z,97261.36
2019-04-06T03:14:32.075Z,97262.64
2019-04-06T03:16:44.917Z,97259.02
2019-04-06T03:18:55.925Z,97268.27
2019-04-06T03:21:06.810Z,97261.30
2019-04-06T03:23:17.763Z,97264.23
2019-04-06T03:25:28.715Z,97259.56
2019-04-06T03:27:39.708Z,97262.27
2019-04-06T03:29:58.299Z,97262.13
2019-04-06T03:32:05.498Z,97255.77
2019-04-06T03:34:20.645Z,97258.19
2019-04-06T03:36:29.179Z,97257.33
2019-04-06T03:38:40.016Z,97258.83
2019-04-06T03:40:50.962Z,97252.91
2019-04-06T03:43:01.805Z,97265.04
2019-04-06T03:45:12.854Z,97263.12
2019-04-06T03:47:23.864Z,97263.20
2019-04-06T03:49:34.795Z,97259.81
2019-04-06T03:51:45.643Z,97261.14
2019-04-06T03:53:56.489Z,97255.19
2019-04-06T03:56:07.619Z,97270.06
2019-04-06T03:58:18.475Z,97255.41
2019-04-06T04:00:29.421Z,97262.22
2019-04-06T04:02:40.477Z,97265.13
2019-04-06T04:04:51.448Z,97261.55
2019-04-06T04:07:02.413Z,97259.40
2019-04-06T04:09:13.355Z,97256.06
2019-04-06T04:11:24.239Z,97247.17
2019-04-06T04:13:35.541Z,97253.25
2019-04-06T04:15:46.696Z,97259.55
2019-04-06T04:17:57.679Z,97263.13
2019-04-06T04:20:08.733Z,97269.25
2019-04-06T04:22:19.616Z,97274.49
2019-04-06T04:24:30.741Z,97282.31
2019-04-06T04:26:41.594Z,97278.09
2019-04-06T04:28:52.565Z,97277.44
2019-04-06T04:31:03.514Z,97274.23
2019-04-06T04:33:14.347Z,97271.99
2019-04-06T04:35:25.211Z,97274.66
2019-04-06T04:37:36.086Z,97274.39
2019-04-06T04:39:46.956Z,97267.20
2019-04-06T04:41:57.872Z,97275.54
2019-04-06T04:44:08.729Z,97276.69
2019-04-06T04:46:19.802Z,97277.43
2019-04-06T04:48:30.649Z,97283.39
2019-04-06T04:50:41.492Z,97282.94
2019-04-06T04:52:52.333Z,97283.47
2019-04-06T04:55:05.095Z,97281.81
2019-04-06T04:57:16.042Z,97277.33
2019-04-06T04:59:26.922Z,97284.77
2019-04-06T05:01:37.923Z,97282.23
2019-04-06T05:03:48.871Z,97287.81
2019-04-06T05:05:59.807Z,97297.05
2019-04-06T05:08:10.781Z,97299.66
2019-04-06T05:10:21.639Z,97292.50
2019-04-06T05:12:32.493Z,97293.70
2019-04-06T05:14:57.346Z,97294.03
2019-04-06T05:17:08.247Z,97295.18
2019-04-06T05:19:19.159Z,97289.11
2019-04-06T05:21:30.043Z,97298.27
2019-04-06T05:23:40.902Z,97304.80
2019-04-06T05:25:51.748Z,97308.84
2019-04-06T05:28:02.833Z,97307.22
2019-04-06T05:30:15.828Z,97308.47
2019-04-06T05:32:26.761Z,97305.83
2019-04-06T05:34:37.602Z,97300.81
2019-04-06T05:36:48.462Z,97300.31
2019-04-06T05:38:59.293Z,97301.33
2019-04-06T05:41:10.164Z,97300.66
2019-04-06T05:43:21.073Z,97301.27
2019-04-06T05:45:32.073Z,97309.19
2019-04-06T05:47:42.911Z,97303.56
2019-04-06T05:49:55.669Z,97308.96
2019-04-06T05:52:06.537Z,97315.75
2019-04-06T05:54:17.474Z,97311.78
2019-04-06T05:56:28.431Z,97316.55
2019-04-06T05:58:40.658Z,97317.24
2019-04-06T06:00:52.055Z,97322.23
2019-04-06T06:03:03.032Z,97327.69
2019-04-06T06:05:14.108Z,97326.81
2019-04-06T06:07:24.944Z,97325.39
2019-04-06T06:09:35.806Z,97324.56
2019-04-06T06:11:46.659Z,97325.34
2019-04-06T06:13:57.499Z,97321.42
2019-04-06T06:16:08.375Z,97324.23
2019-04-06T06:18:26.453Z,97323.24
2019-04-06T06:20:33.959Z,97325.52
2019-04-06T06:22:44.850Z,97326.02
2019-04-06T06:24:55.692Z,97317.02
2019-04-06T06:27:06.583Z,97318.95
2019-04-06T06:29:17.505Z,97319.48
2019-04-06T06:31:28.399Z,97321.40
2019-04-06T06:33:39.298Z,97316.52
2019-04-06T06:35:50.137Z,97318.06
2019-04-06T06:38:01.072Z,97314.85
2019-04-06T06:40:13.960Z,97318.59
2019-04-06T06:42:24.892Z,97316.46
2019-04-06T06:44:35.699Z,97315.05
2019-04-06T06:46:46.668Z,97316.57
2019-04-06T06:48:57.811Z,97319.05
2019-04-06T06:51:08.703Z,97319.10
2019-04-06T06:53:19.651Z,97315.91
2019-04-06T06:55:30.517Z,97319.70
2019-04-06T06:57:41.385Z,97316.34
2019-04-06T06:59:52.220Z,97317.75
2019-04-06T07:02:03.176Z,97316.55
2019-04-06T07:04:14.019Z,97312.61
2019-04-06T07:06:24.854Z,97311.80
2019-04-06T07:08:35.852Z,97315.32
2019-04-06T07:10:46.656Z,97318.05
2019-04-06T07:12:57.531Z,97312.31
2019-04-06T07:15:08.591Z,97312.31
2019-04-06T07:17:19.480Z,97320.64
2019-04-06T07:19:30.480Z,97317.77
2019-04-06T07:21:41.442Z,97314.26
2019-04-06T07:23:52.319Z,97323.58
2019-04-06T07:26:03.401Z,97315.82
2019-04-06T07:28:14.239Z,97316.92
2019-04-06T07:30:25.253Z,97319.16
2019-04-06T07:32:36.216Z,97315.52
2019-04-06T07:34:47.082Z,97313.08
2019-04-06T07:36:57.928Z,97311.88
2019-04-06T07:39:08.900Z,97312.80
2019-04-06T07:41:19.772Z,97310.48
2019-04-06T07:43:30.620Z,97317.33
2019-04-06T07:45:41.613Z,97314.16
2019-04-06T07:47:52.485Z,97315.08
2019-04-06T07:50:05.182Z,97315.08
2019-04-06T07:52:16.028Z,97313.59
2019-04-06T07:54:27.027Z,97308.34
2019-04-06T07:56:37.895Z,97300.75
2019-04-06T07:58:50.045Z,97304.41
2019-04-06T08:01:01.176Z,97308.84
2019-04-06T08:03:12.117Z,97303.25
2019-04-06T08:05:23.066Z,97306.97
2019-04-06T08:07:34.027Z,97306.11
2019-04-06T08:09:44.994Z,97303.17
2019-04-06T08:11:55.847Z,97304.03
2019-04-06T08:14:06.686Z,97302.90
2019-04-06T08:16:17.556Z,97302.74
2019-04-06T08:18:30.316Z,97302.74
2019-04-06T08:20:41.361Z,97296.81
2019-04-06T08:22:52.334Z,97302.19
2019-04-06T08:25:04.584Z,97298.03
2019-04-06T08:27:15.473Z,97310.58
2019-04-06T08:29:26.486Z,97306.66
2019-04-06T08:31:37.464Z,97300.96
2019-04-06T08:33:48.397Z,97297.30
2019-04-06T08:35:59.605Z,97298.34
2019-04-06T08:38:10.547Z,97292.05
2019-04-06T08:40:21.519Z,97286.45
2019-04-06T08:42:34.284Z,97286.45
2019-04-06T08:44:45.143Z,97290.98
2019-04-06T08:46:56.103Z,97288.37
2019-04-06T08:49:06.953Z,97286.33
2019-04-06T08:51:18.807Z,97278.05
2019-04-06T08:53:29.650Z,97281.53
2019-04-06T08:55:40.519Z,97278.98
2019-04-06T08:57:51.391Z,97275.17
2019-04-06T09:00:05.037Z,97278.50
2019-04-06T09:02:15.949Z,97285.38
2019-04-06T09:04:26.810Z,97280.35
2019-04-06T09:06:37.659Z,97277.02
2019-04-06T09:08:48.520Z,97277.55
2019-04-06T09:10:59.407Z,97271.77
2019-04-06T09:13:10.248Z,97266.41
2019-04-06T09:15:21.079Z,97266.05
2019-04-06T09:17:31.940Z,97263.27
2019-04-06T09:19:42.801Z,97259.02
2019-04-06T09:21:53.769Z,97262.22
2019-04-06T09:24:04.937Z,97261.98
2019-04-06T09:26:15.807Z,97261.31
2019-04-06T09:28:26.797Z,97251.44
2019-04-06T09:30:37.710Z,97250.64
2019-04-06T09:32:48.577Z,97246.25
2019-04-06T09:34:59.433Z,97241.94
2019-04-06T09:37:10.394Z,97228.89
2019-04-06T09:39:21.300Z,97232.26
2019-04-06T09:41:32.148Z,97226.94
2019-04-06T09:43:43.010Z,97227.98
2019-04-06T09:46:10.749Z,97224.41
2019-04-06T09:48:23.653Z,97222.23
2019-04-06T09:50:36.708Z,97213.79
2019-04-06T09:52:49.547Z,97213.72
2019-04-06T09:55:17.386Z,97210.72
2019-04-06T09:57:30.315Z,97205.43
2019-04-06T09:59:55.274Z,97196.95
2019-04-06T10:02:08.291Z,97189.88
2019-04-06T10:04:21.180Z,97191.05
2019-04-06T10:06:33.930Z,97185.88
2019-04-06T10:09:02.012Z,97187.02
2019-04-06T10:11:26.968Z,97189.00
2019-04-06T10:13:57.837Z,97186.21
2019-04-06T10:16:25.834Z,97180.64
2019-04-06T10:18:47.606Z,97172.93
2019-04-06T10:21:03.281Z,97171.80
2019-04-06T10:23:28.073Z,97167.02
2019-04-06T10:25:57.198Z,97164.69
2019-04-06T10:28:28.020Z,97165.02
2019-04-06T10:30:56.128Z,97163.41
2019-04-06T10:33:08.893Z,97165.77
2019-04-06T10:35:38.730Z,97161.39
2019-04-06T10:38:06.531Z,97154.32
2019-04-06T10:40:22.296Z,97156.46
2019-04-06T10:42:44.231Z,97158.16
2019-04-06T10:45:02.857Z,97157.14
2019-04-06T10:47:30.990Z,97161.49
2019-04-06T10:49:49.604Z,97159.63
2019-04-06T10:52:02.496Z,97150.78
2019-04-06T10:54:24.352Z,97158.25
2019-04-06T10:56:40.120Z,97154.73
2019-04-06T10:58:52.910Z,97152.13
2019-04-06T11:01:05.800Z,97144.29
2019-04-06T11:03:35.080Z,97146.86
2019-04-06T11:06:00.240Z,97139.23
2019-04-06T11:08:13.326Z,97130.34
2019-04-06T11:10:32.321Z,97137.83
2019-04-06T11:12:54.313Z,97137.71
2019-04-06T11:15:19.366Z,97131.23
2019-04-06T11:17:44.233Z,97128.29
2019-04-06T11:20:02.692Z,97129.23
2019-04-06T11:22:18.300Z,97128.64
2019-04-06T11:24:37.088Z,97119.45
2019-04-06T11:27:04.959Z,97121.20
2019-04-06T11:29:17.869Z,97117.76
2019-04-06T11:31:36.424Z,97111.05
2019-04-06T11:34:05.775Z,97125.97
2019-04-06T11:36:18.651Z,97115.28
2019-04-06T11:38:31.519Z,97118.06
2019-04-06T11:40:47.653Z,97114.33
2019-04-06T11:43:00.773Z,97122.61
2019-04-06T11:45:29.113Z,97116.86
2019-04-06T11:47:51.183Z,97111.78
2019-04-06T11:50:22.931Z,97108.06
2019-04-06T11:52:52.305Z,97118.52
2019-04-06T11:55:14.421Z,97116.68
2019-04-06T11:57:39.507Z,97116.07
2019-04-06T11:59:58.576Z,97118.06
2019-04-06T12:02:11.500Z,97119.16
2019-04-06T12:04:41.547Z,97117.69
2019-04-06T12:06:54.402Z,97123.02
2019-04-06T12:09:10.322Z,97117.76
2019-04-06T12:11:38.577Z,97127.66
2019-04-06T12:14:03.559Z,97116.05
2019-04-06T12:16:34.682Z,97116.05
2019-04-06T12:19:06.107Z,97115.88
2019-04-06T12:21:34.383Z,97115.77
2019-04-06T12:24:04.073Z,97113.17
2019-04-06T12:26:23.006Z,97114.87
2019-04-06T12:28:35.760Z,97118.13
2019-04-06T12:30:51.547Z,97113.05
2019-04-06T12:33:13.826Z,97116.36
2019-04-06T12:35:32.705Z,97110.48
2019-04-06T12:38:00.747Z,97109.31
2019-04-06T12:40:13.728Z,97109.69
2019-04-06T12:42:26.591Z,97107.08
2019-04-06T12:44:42.008Z,97112.30
2019-04-06T12:47:03.574Z,97107.02
2019-04-06T12:49:16.633Z,97112.63
2019-04-06T12:51:44.577Z,97107.08
2019-04-06T12:54:14.005Z,97111.69
2019-04-06T12:56:38.690Z,97108.19
2019-04-06T12:59:07.813Z,97112.60
2019-04-06T13:01:20.581Z,97112.69
2019-04-06T13:03:50.142Z,97110.80
2019-04-06T13:06:03.484Z,97110.27
2019-04-06T13:08:16.245Z,97111.82
2019-04-06T13:10:35.169Z,97104.31
2019-04-06T13:12:57.283Z,97101.73
2019-04-06T13:15:10.769Z,97097.39
2019-04-06T13:17:38.484Z,97094.81
2019-04-06T13:20:08.165Z,97090.36
2019-04-06T13:22:39.549Z,97082.31
2019-04-06T13:24:55.605Z,97084.64
2019-04-06T13:27:17.779Z,97084.84
2019-04-06T13:29:33.272Z,97079.94
2019-04-06T13:31:52.217Z,97078.24
2019-04-06T13:34:10.915Z,97082.07
2019-04-06T13:36:26.433Z,97072.03
2019-04-06T13:38:39.212Z,97061.95
2019-04-06T13:40:55.477Z,97065.48
2019-04-06T13:43:25.326Z,97060.25
2019-04-06T13:45:44.030Z,97066.05
2019-04-06T13:48:16.934Z,97069.08
2019-04-06T13:50:46.557Z,97067.18
2019-04-06T13:53:01.484Z,97068.78
2019-04-06T13:55:29.090Z,97062.12
2019-04-06T13:57:41.866Z,97051.66
2019-04-06T14:00:09.942Z,97042.27
2019-04-06T14:02:37.911Z,97042.70
2019-04-06T14:05:05.981Z,97043.09
2019-04-06T14:07:25.059Z,97034.33
2019-04-06T14:09:37.953Z,97038.63
2019-04-06T14:11:53.469Z,97032.72
2019-04-06T14:14:06.382Z,97033.63
2019-04-06T14:16:25.427Z,97031.91
2019-04-06T14:18:57.666Z,97031.53
2019-04-06T14:21:12.874Z,97040.00
2019-04-06T14:23:25.830Z,97041.02
2019-04-06T14:25:44.619Z,97030.52
2019-04-06T14:27:57.383Z,97037.84
2019-04-06T14:30:20.241Z,97038.86
2019-04-06T14:32:35.753Z,97036.27
2019-04-06T14:34:48.552Z,97031.38
2019-04-06T14:37:19.866Z,97034.77
2019-04-06T14:39:32.662Z,97036.44
2019-04-06T14:41:48.627Z,97037.47
2019-04-06T14:44:01.415Z,97027.87
2019-04-06T14:46:17.427Z,97025.56
2019-04-06T14:48:30.242Z,97028.50
2019-04-06T14:50:45.750Z,97025.42
2019-04-06T14:53:16.649Z,97033.13
2019-04-06T14:55:48.084Z,97026.78
2019-04-06T14:58:01.175Z,97022.86
2019-04-06T15:00:14.576Z,97022.17
2019-04-06T15:02:42.732Z,97020.42
2019-04-06T15:04:58.182Z,97021.05
2019-04-06T15:07:12.758Z,97013.22
2019-04-06T15:09:45.388Z,97017.62
2019-04-06T15:12:06.964Z,97010.39
2019-04-06T15:14:19.764Z,97011.13
2019-04-06T15:16:49.243Z,97011.31
2019-04-06T15:19:18.742Z,97010.19
2019-04-06T15:21:31.559Z,97006.28
2019-04-06T15:23:53.355Z,97004.38
2019-04-06T15:26:06.280Z,97001.42
2019-04-06T15:28:28.788Z,97000.98
2019-04-06T15:30:50.619Z,96992.97
2019-04-06T15:33:09.340Z,96992.66
2019-04-06T15:35:27.996Z,96992.53
2019-04-06T15:37:43.761Z,96992.04
2019-04-06T15:40:05.713Z,96987.79
2019-04-06T15:42:33.544Z,96986.18
2019-04-06T15:44:52.111Z,96987.01
2019-04-06T15:47:04.964Z,96979.64
2019-04-06T15:49:24.410Z,96975.41
2019-04-06T15:51:37.174Z,96971.48
2019-04-06T15:54:01.179Z,96974.61
2019-04-06T15:56:13.797Z,96970.54
2019-04-06T15:58:38.581Z,96973.52
2019-04-06T16:00:57.557Z,96972.70
2019-04-06T16:03:28.857Z,96977.09
2019-04-06T16:05:44.604Z,96967.59
2019-04-06T16:08:09.265Z,96963.76
2019-04-06T16:10:25.112Z,96964.56
2019-04-06T16:12:37.886Z,96958.70
2019-04-06T16:15:07.043Z,96961.80
2019-04-06T16:17:31.816Z,96957.38
2019-04-06T16:19:56.924Z,96960.95
2019-04-06T16:22:18.823Z,96963.25
2019-04-06T16:24:37.584Z,96962.13
2019-04-06T16:26:55.251Z,96956.80
2019-04-06T16:29:13.264Z,96961.73
2019-04-06T16:31:26.171Z,96961.24
2019-04-06T16:33:38.958Z,96964.03
2019-04-06T16:35:53.793Z,96965.34
2019-04-06T16:38:22.566Z,96962.91
2019-04-06T16:40:47.863Z,96963.55
2019-04-06T16:43:09.702Z,96966.98
2019-04-06T16:45:39.241Z,96965.99
2019-04-06T16:47:54.728Z,96967.92
2019-04-06T16:50:16.641Z,96972.11
2019-04-06T16:52:46.038Z,96968.95
2019-04-06T16:55:01.526Z,96974.80
2019-04-06T16:57:29.657Z,96972.97
2019-04-06T16:59:59.304Z,96975.52
2019-04-06T17:02:22.212Z,96973.30
2019-04-06T17:04:29.538Z,96970.07
2019-04-06T17:06:59.267Z,96977.63
2019-04-06T17:09:14.730Z,96969.07
2019-04-06T17:11:27.948Z,96966.75
2019-04-06T17:13:43.396Z,96967.36
2019-04-06T17:16:01.996Z,96967.66
2019-04-06T17:18:26.892Z,96964.67
2019-04-06T17:20:39.700Z,96964.61
2019-04-06T17:22:52.693Z,96963.94
2019-04-06T17:25:12.277Z,96959.66
2019-04-06T17:27:25.043Z,96964.27
2019-04-06T17:29:55.304Z,96962.44
2019-04-06T17:32:13.964Z,96962.23
2019-04-06T17:34:28.642Z,96970.53
2019-04-06T17:36:50.731Z,96964.08
2019-04-06T17:39:13.151Z,96967.23
2019-04-06T17:41:29.251Z,96979.08
2019-04-06T17:43:57.575Z,96973.08
2019-04-06T17:46:13.087Z,96971.45
2019-04-06T17:48:28.697Z,96969.97
2019-04-06T17:50:41.459Z,96971.32
2019-04-06T17:53:03.043Z,96971.50
2019-04-06T17:55:24.868Z,96976.15
2019-04-06T17:57:37.921Z,96978.34
2019-04-06T18:00:06.240Z,96985.55
2019-04-06T18:02:25.197Z,96986.76
2019-04-06T18:04:41.402Z,96981.44
2019-04-06T18:07:11.004Z,96986.08
2019-04-06T18:09:36.334Z,96995.08
2019-04-06T18:11:52.018Z,96992.64
2019-04-06T18:14:03.095Z,96998.52
2019-04-06T18:16:14.127Z,96999.34
2019-04-06T18:18:24.991Z,96999.17
2019-04-06T18:20:35.935Z,97001.84
2019-04-06T18:22:46.821Z,96999.12
2019-04-06T18:24:57.983Z,97006.55
2019-04-06T18:27:08.918Z,97008.94
2019-04-06T18:29:19.867Z,97014.48
2019-04-06T18:31:44.661Z,97013.86
2019-04-06T18:33:55.810Z,97015.38
2019-04-06T18:36:06.611Z,97012.75
2019-04-06T18:38:19.913Z,97018.76
2019-04-06T18:40:30.756Z,97021.30
2019-04-06T18:42:41.782Z,97026.06
2019-04-06T18:44:53.068Z,97024.69
2019-04-06T18:47:04.088Z,97030.64
2019-04-06T18:49:15.065Z,97034.96
2019-04-06T18:51:25.949Z,97032.32
2019-04-06T18:53:37.065Z,97037.52
2019-04-06T18:55:48.215Z,97038.16
2019-04-06T18:58:08.705Z,97040.62
2019-04-06T19:00:13.369Z,97045.25
2019-04-06T19:02:24.540Z,97043.30
2019-04-06T19:04:35.396Z,97047.39
2019-04-06T19:06:46.644Z,97039.27
2019-04-06T19:08:57.618Z,97047.38
2019-04-06T19:11:08.690Z,97049.17
2019-04-06T19:13:19.617Z,97050.49
2019-04-06T19:15:30.564Z,97050.62
2019-04-06T19:17:41.409Z,97050.68
2019-04-06T19:19:52.355Z,97058.87
2019-04-06T19:22:03.706Z,97058.67
2019-04-06T19:24:14.721Z,97063.06
2019-04-06T19:26:25.737Z,97061.08
2019-04-06T19:28:36.689Z,97061.25
2019-04-06T19:30:47.685Z,97063.14
2019-04-06T19:32:59.160Z,97062.69
2019-04-06T19:35:12.171Z,97068.33
2019-04-06T19:37:23.049Z,97068.59
2019-04-06T19:39:34.477Z,97071.56
2019-04-06T19:41:46.095Z,97072.97
2019-04-06T19:43:57.027Z,97074.16
2019-04-06T19:46:08.007Z,97073.20
2019-04-06T19:48:18.976Z,97076.66
2019-04-06T19:50:30.443Z,97066.27
2019-04-06T19:52:41.590Z,97066.27
2019-04-06T19:54:52.573Z,97063.70
2019-04-06T19:57:03.545Z,97064.77
2019-04-06T19:59:14.415Z,97059.43
2019-04-06T20:01:25.402Z,97060.16
2019-04-06T20:03:38.545Z,97056.86
2019-04-06T20:05:49.163Z,97050.48
2019-04-06T20:08:00.446Z,97052.38
2019-04-06T20:10:11.727Z,97048.59
2019-04-06T20:12:22.795Z,97052.72
2019-04-06T20:14:33.772Z,97051.78
2019-04-06T20:16:44.615Z,97050.72
2019-04-06T20:18:55.536Z,97048.36
2019-04-06T20:21:06.511Z,97043.25
2019-04-06T20:23:19.358Z,97048.89
2019-04-06T20:25:30.643Z,97053.47
2019-04-06T20:27:42.029Z,97053.70
2019-04-06T20:29:55.138Z,97051.78
2019-04-06T20:32:06.732Z,97048.11
2019-04-06T20:34:17.686Z,97045.17
2019-04-06T20:36:28.840Z,97044.23
2019-04-06T20:38:40.625Z,97042.20
2019-04-06T20:40:51.601Z,97049.86
2019-04-06T20:43:02.858Z,97043.09
2019-04-06T20:45:13.981Z,97046.28
2019-04-06T20:47:24.971Z,97039.91
2019-04-06T20:49:36.254Z,97047.23
2019-04-06T20:51:47.174Z,97046.85
2019-04-06T20:53:57.986Z,97045.08
2019-04-06T20:56:08.935Z,97039.81
2019-04-06T20:58:20.391Z,97040.84
2019-04-06T21:00:31.378Z,97044.17
2019-04-06T21:02:42.229Z,97040.28
2019-04-06T21:04:53.100Z,97039.77
2019-04-06T21:07:04.401Z,97042.45
2019-04-06T21:09:15.472Z,97047.25
2019-04-06T21:11:26.336Z,97048.16
2019-04-06T21:13:37.203Z,97051.17
2019-04-06T21:15:48.094Z,97055.34
2019-04-06T21:17:59.095Z,97054.86
2019-04-06T21:20:10.698Z,97054.95
2019-04-06T21:22:21.639Z,97054.94
2019-04-06T21:24:32.873Z,97055.27
2019-04-06T21:26:44.258Z,97052.21
2019-04-06T21:28:55.397Z,97056.25
2019-04-06T21:31:06.345Z,97057.27
2019-04-06T21:33:17.209Z,97056.66
2019-04-06T21:35:28.164Z,97054.75
2019-04-06T21:37:39.021Z,97057.05
2019-04-06T21:39:49.982Z,97052.41
2019-04-06T21:42:00.951Z,97055.49
2019-04-06T21:44:12.188Z,97057.02
2019-04-06T21:46:23.578Z,97055.61
2019-04-06T21:48:35.148Z,97056.97
2019-04-06T21:50:46.447Z,97054.61
2019-04-06T21:52:57.660Z,97055.02
2019-04-06T21:55:11.184Z,97059.30
2019-04-06T21:57:22.139Z,97058.30
2019-04-06T21:59:33.876Z,97058.09
2019-04-06T22:01:45.084Z,97061.64
2019-04-06T22:03:56.034Z,97058.84
2019-04-06T22:06:06.983Z,97058.02
2019-04-06T22:08:17.852Z,97058.82
2019-04-06T22:10:28.786Z,97060.74
2019-04-06T22:12:39.993Z,97055.84
2019-04-06T22:14:51.598Z,97063.84
2019-04-06T22:17:05.262Z,97066.92
2019-04-06T22:19:16.108Z,97059.22
2019-04-06T22:21:27.183Z,97063.66
2019-04-06T22:23:42.247Z,97063.77
2019-04-06T22:25:51.395Z,97068.05
2019-04-06T22:28:02.806Z,97066.70
2019-04-06T22:30:14.898Z,97072.69
2019-04-06T22:32:25.859Z,97071.40
2019-04-06T22:34:40.216Z,97068.38
2019-04-06T22:36:49.578Z,97071.66
2019-04-06T22:39:00.710Z,97066.97
2019-04-06T22:41:11.851Z,97066.61
2019-04-06T22:43:22.767Z,97066.81
2019-04-06T22:45:34.707Z,97066.45
2019-04-06T22:47:45.557Z,97072.06
2019-04-06T22:49:56.506Z,97064.78
2019-04-06T22:52:07.886Z,97064.01
2019-04-06T22:54:18.866Z,97072.12
2019-04-06T22:56:29.797Z,97074.12
2019-04-06T22:58:41.240Z,97065.20
2019-04-06T23:00:56.915Z,97065.19
2019-04-06T23:03:13.098Z,97063.58
2019-04-06T23:05:29.497Z,97066.08
2019-04-06T23:07:40.392Z,97067.39
2019-04-06T23:09:52.017Z,97069.34
2019-04-06T23:12:03.209Z,97070.00
2019-04-06T23:14:14.271Z,97068.14
2019-04-06T23:16:25.109Z,97067.59
2019-04-06T23:18:35.977Z,97063.52
2019-04-06T23:20:47.321Z,97064.81
2019-04-06T23:22:58.223Z,97065.01
2019-04-06T23:25:09.482Z,97061.52
2019-04-06T23:27:22.702Z,97061.70
2019-04-06T23:29:33.749Z,97064.87
2019-04-06T23:31:45.194Z,97059.07
2019-04-06T23:33:56.095Z,97065.08
2019-04-06T23:36:06.934Z,97058.66
2019-04-06T23:38:17.866Z,97059.77
2019-04-06T23:40:29.426Z,97055.27
2019-04-06T23:42:40.486Z,97064.86
2019-04-06T23:44:51.628Z,97059.80
2019-04-06T23:47:03.228Z,97067.19
2019-04-06T23:49:14.141Z,97064.70
2019-04-06T23:51:25.673Z,97068.48
2019-04-06T23:53:37.248Z,97066.55
2019-04-06T23:55:48.198Z,97059.45
2019-04-06T23:57:59.120Z,97058.33
